createdAt,value
2023-03-26T00:03:18.684Z,7.60
2023-03-26T00:08:20.836Z,7.50
2023-03-26T00:13:22.984Z,7.50
2023-03-26T00:18:30.375Z,7.50
2023-03-26T00:23:35.374Z,7.50
2023-03-26T00:28:42.331Z,7.40
2023-03-26T00:33:44.797Z,7.40
2023-03-26T00:38:48.140Z,7.40
2023-03-26T00:43:53.603Z,7.40
2023-03-26T00:49:00.012Z,7.40
2023-03-26T00:54:02.584Z,7.40
2023-03-26T00:59:04.928Z,7.40
2023-03-26T01:04:31.473Z,7.50
2023-03-26T01:09:37.583Z,7.50
2023-03-26T01:14:40.532Z,7.50
2023-03-26T01:19:45.652Z,7.50
2023-03-26T01:24:53.903Z,7.50
2023-03-26T01:30:41.750Z,7.50
2023-03-26T01:35:55.243Z,7.50
2023-03-26T01:41:04.826Z,7.50
2023-03-26T01:46:11.467Z,7.50
2023-03-26T01:51:15.062Z,7.50
2023-03-26T01:56:21.139Z,7.50
2023-03-26T02:01:30.503Z,7.50
2023-03-26T02:06:45.256Z,7.50
2023-03-26T02:11:48.278Z,7.50
2023-03-26T02:16:51.812Z,7.50
2023-03-26T02:21:59.984Z,7.40
2023-03-26T02:27:07.854Z,7.40
2023-03-26T02:32:14.944Z,7.50
2023-03-26T02:37:19.168Z,7.50
2023-03-26T02:42:24.745Z,7.50
2023-03-26T02:47:28.159Z,7.40
2023-03-26T02:52:30.626Z,7.40
2023-03-26T02:57:34.858Z,7.40
2023-03-26T03:02:48.267Z,7.30
2023-03-26T03:08:06.301Z,7.20
2023-03-26T03:13:11.135Z,7.00
2023-03-26T03:18:13.564Z,6.90
2023-03-26T03:23:16.468Z,6.90
2023-03-26T03:28:19.528Z,6.90
2023-03-26T03:33:21.952Z,7.00
2023-03-26T03:38:24.163Z,7.00
2023-03-26T03:43:28.806Z,7.00
2023-03-26T03:48:48.424Z,6.90
2023-03-26T03:53:52.942Z,7.00
2023-03-26T03:59:09.084Z,7.00
2023-03-26T04:04:13.315Z,7.00
2023-03-26T04:09:35.983Z,6.90
2023-03-26T04:14:46.386Z,6.80
2023-03-26T04:19:53.139Z,6.80
2023-03-26T04:24:55.890Z,6.70
2023-03-26T04:30:12.748Z,6.60
2023-03-26T04:35:16.871Z,6.50
2023-03-26T04:40:23.787Z,6.40
2023-03-26T04:45:48.828Z,6.30
2023-03-26T04:50:53.236Z,6.30
2023-03-26T04:56:07.200Z,6.30
2023-03-26T05:01:28.664Z,6.30
2023-03-26T05:06:34.517Z,6.40
2023-03-26T05:11:42.644Z,6.40
2023-03-26T05:16:48.204Z,6.40
2023-03-26T05:21:50.690Z,6.40
2023-03-26T05:26:52.923Z,6.50
2023-03-26T05:31:58.774Z,6.50
2023-03-26T05:37:01.114Z,6.60
2023-03-26T05:42:31.745Z,6.70
2023-03-26T05:47:58.246Z,6.60
2023-03-26T05:53:01.862Z,6.70
2023-03-26T05:58:22.737Z,6.80
2023-03-26T06:03:54.124Z,6.70
2023-03-26T06:09:01.383Z,6.80
2023-03-26T06:14:05.184Z,6.80
2023-03-26T06:19:08.596Z,6.80
2023-03-26T06:24:24.550Z,6.80
2023-03-26T06:29:58.190Z,6.90
2023-03-26T06:35:12.443Z,7.00
2023-03-26T06:40:16.196Z,6.90
2023-03-26T06:45:41.253Z,6.90
2023-03-26T06:51:06.359Z,7.00
2023-03-26T06:56:27.032Z,7.00
2023-03-26T07:01:55.020Z,7.10
2023-03-26T07:07:16.141Z,7.20
2023-03-26T07:12:37.038Z,7.20
2023-03-26T07:18:14.827Z,7.20
2023-03-26T07:23:20.938Z,7.20
2023-03-26T07:29:03.601Z,7.20
2023-03-26T07:34:51.994Z,7.30
2023-03-26T07:40:26.123Z,7.30
2023-03-26T07:45:47.476Z,7.50
2023-03-26T07:51:00.345Z,7.50
2023-03-26T07:56:32.878Z,7.50
2023-03-26T08:02:32.576Z,7.50
2023-03-26T08:08:03.013Z,7.50
2023-03-26T08:13:22.467Z,7.80
2023-03-26T08:18:35.869Z,7.90
2023-03-26T08:23:50.287Z,7.90
2023-03-26T08:29:05.184Z,8.00
2023-03-26T08:34:11.648Z,8.20
2023-03-26T08:39:14.409Z,8.60
2023-03-26T08:44:35.086Z,8.20
2023-03-26T08:49:58.262Z,8.10
2023-03-26T08:55:38.388Z,8.30
2023-03-26T09:00:59.227Z,8.60
2023-03-26T09:06:15.626Z,8.50
2023-03-26T09:11:32.637Z,8.60
2023-03-26T09:16:35.033Z,9.30
2023-03-26T09:22:24.889Z,9.60
2023-03-26T09:27:36.309Z,9.30
2023-03-26T09:33:07.529Z,9.20
2023-03-26T09:38:38.946Z,9.30
2023-03-26T09:43:50.009Z,10.00
2023-03-26T09:49:43.027Z,12.30
2023-03-26T09:54:57.252Z,13.00
2023-03-26T10:00:07.742Z,12.80
2023-03-26T10:05:34.638Z,12.50
2023-03-26T10:10:48.825Z,11.60
2023-03-26T10:16:21.496Z,11.00
2023-03-26T10:21:42.679Z,10.50
2023-03-26T10:27:09.159Z,10.40
2023-03-26T10:32:31.096Z,10.30
2023-03-26T10:37:41.092Z,10.30
2023-03-26T10:43:04.931Z,10.50
2023-03-26T10:48:45.068Z,10.90
2023-03-26T10:53:56.415Z,10.90
2023-03-26T10:59:02.120Z,10.30
2023-03-26T11:04:24.719Z,10.50
2023-03-26T11:09:45.593Z,11.10
2023-03-26T11:15:03.247Z,11.80
2023-03-26T11:20:28.946Z,12.20
2023-03-26T11:25:52.951Z,12.10
2023-03-26T11:31:03.500Z,12.80
2023-03-26T11:36:19.862Z,13.80
2023-03-26T11:41:24.484Z,16.50
2023-03-26T11:46:44.549Z,19.80
2023-03-26T11:51:48.839Z,19.60
2023-03-26T11:57:05.090Z,15.50
2023-03-26T12:02:12.337Z,14.20
2023-03-26T12:07:23.506Z,13.20
2023-03-26T12:12:46.255Z,12.50
2023-03-26T12:17:53.779Z,12.90
2023-03-26T12:22:59.488Z,13.20
2023-03-26T12:28:13.722Z,14.80
2023-03-26T12:33:35.203Z,18.30
2023-03-26T12:38:39.354Z,17.30
2023-03-26T12:44:50.480Z,15.70
2023-03-26T12:49:51.458Z,18.50
2023-03-26T12:55:02.684Z,19.20
2023-03-26T13:01:08.878Z,19.40
2023-03-26T13:06:20.708Z,16.80
2023-03-26T13:11:33.435Z,17.00
2023-03-26T13:17:04.740Z,17.40
2023-03-26T13:22:10.020Z,16.10
2023-03-26T13:27:26.651Z,13.60
2023-03-26T13:32:57.602Z,13.50
2023-03-26T13:38:05.903Z,15.40
2023-03-26T13:43:42.295Z,14.20
2023-03-26T13:48:47.556Z,15.30
2023-03-26T13:54:00.630Z,15.60
2023-03-26T13:59:12.663Z,15.60
2023-03-26T14:04:33.455Z,15.50
2023-03-26T14:09:52.179Z,15.80
2023-03-26T14:15:01.192Z,15.90
2023-03-26T14:20:13.988Z,15.00
2023-03-26T14:25:28.230Z,15.80
2023-03-26T14:31:00.865Z,15.20
2023-03-26T14:36:33.388Z,15.10
2023-03-26T14:41:38.801Z,15.90
2023-03-26T14:47:15.834Z,15.70
2023-03-26T14:52:44.427Z,15.40
2023-03-26T14:57:58.713Z,17.80
2023-03-26T15:03:09.936Z,19.90
2023-03-26T15:08:24.172Z,18.90
2023-03-26T15:14:02.554Z,18.70
2023-03-26T15:19:17.872Z,19.10
2023-03-26T15:24:47.689Z,19.80
2023-03-26T15:30:15.304Z,17.90
2023-03-26T15:35:23.462Z,19.00
2023-03-26T15:40:38.259Z,16.80
2023-03-26T15:46:18.741Z,14.30
2023-03-26T15:51:49.477Z,13.60
2023-03-26T15:57:18.627Z,15.70
2023-03-26T16:02:23.848Z,16.80
2023-03-26T16:07:50.278Z,15.80
2023-03-26T16:13:17.507Z,16.10
2023-03-26T16:18:29.165Z,16.10
2023-03-26T16:23:47.582Z,13.20
2023-03-26T16:28:53.775Z,11.60
2023-03-26T16:34:18.413Z,10.60
2023-03-26T16:39:37.685Z,10.50
2023-03-26T16:45:09.678Z,12.10
2023-03-26T16:50:30.111Z,10.50
2023-03-26T16:55:59.842Z,9.30
2023-03-26T17:01:05.094Z,8.80
2023-03-26T17:06:24.167Z,9.80
2023-03-26T17:11:55.060Z,10.20
2023-03-26T17:17:09.234Z,10.00
2023-03-26T17:22:30.269Z,8.90
2023-03-26T17:27:50.106Z,8.60
2023-03-26T17:32:59.005Z,8.20
2023-03-26T17:38:01.860Z,7.80
2023-03-26T17:43:11.652Z,7.10
2023-03-26T17:48:28.307Z,6.60
2023-03-26T17:53:32.519Z,6.50
2023-03-26T17:58:39.375Z,6.40
2023-03-26T18:03:52.723Z,6.20
2023-03-26T18:09:13.945Z,6.00
2023-03-26T18:14:25.079Z,5.70
2023-03-26T18:19:28.764Z,5.50
2023-03-26T18:24:42.345Z,5.50
2023-03-26T18:30:02.912Z,5.40
2023-03-26T18:35:18.921Z,5.30
2023-03-26T18:40:22.853Z,5.20
2023-03-26T18:45:32.309Z,5.10
2023-03-26T18:50:37.468Z,5.10
2023-03-26T18:55:40.256Z,5.00
2023-03-26T19:00:44.419Z,5.00
2023-03-26T19:05:47.242Z,4.90
2023-03-26T19:10:50.589Z,4.90
2023-03-26T19:15:54.962Z,4.80
2023-03-26T19:21:04.590Z,4.70
2023-03-26T19:26:11.693Z,4.70
2023-03-26T19:31:16.848Z,4.70
2023-03-26T19:36:29.895Z,4.70
2023-03-26T19:41:38.186Z,4.70
2023-03-26T19:46:53.993Z,4.70
2023-03-26T19:52:15.050Z,4.60
2023-03-26T19:57:17.553Z,4.50
2023-03-26T20:02:20.203Z,4.50
2023-03-26T20:07:35.239Z,4.50
2023-03-26T20:12:38.708Z,4.40
2023-03-26T20:17:43.022Z,4.40
2023-03-26T20:22:47.129Z,4.30
2023-03-26T20:27:49.725Z,4.20
2023-03-26T20:33:12.102Z,4.10
2023-03-26T20:38:17.046Z,4.00
2023-03-26T20:43:21.920Z,4.00
2023-03-26T20:48:26.730Z,4.00
2023-03-26T20:53:30.614Z,4.00
2023-03-26T20:58:33.397Z,3.90
2023-03-26T21:03:35.641Z,3.90
2023-03-26T21:08:38.384Z,3.90
2023-03-26T21:14:11.236Z,3.80
2023-03-26T21:19:14.073Z,3.80
2023-03-26T21:24:29.641Z,3.70
2023-03-26T21:29:32.307Z,3.70
2023-03-26T21:34:35.071Z,3.70
2023-03-26T21:39:38.141Z,3.60
2023-03-26T21:44:41.007Z,3.50
2023-03-26T21:49:43.510Z,3.50
2023-03-26T21:54:46.134Z,3.50
2023-03-26T22:00:18.375Z,3.40
2023-03-26T22:05:30.017Z,3.30
2023-03-26T22:10:32.253Z,3.10
2023-03-26T22:15:35.696Z,3.20
2023-03-26T22:20:37.997Z,3.00
2023-03-26T22:25:40.448Z,3.00
2023-03-26T22:30:42.711Z,3.00
2023-03-26T22:35:45.316Z,2.90
2023-03-26T22:40:55.821Z,3.00
2023-03-26T22:45:58.448Z,2.90
2023-03-26T22:51:06.754Z,2.90
2023-03-26T22:56:09.709Z,2.90
2023-03-26T23:01:13.541Z,2.80
2023-03-26T23:06:16.732Z,2.70
2023-03-26T23:11:20.658Z,2.80
2023-03-26T23:16:22.913Z,2.80
2023-03-26T23:21:25.727Z,2.70
2023-03-26T23:26:34.953Z,2.60
2023-03-26T23:31:42.306Z,2.50
2023-03-26T23:36:44.994Z,2.50
2023-03-26T23:41:47.309Z,2.50
2023-03-26T23:46:57.985Z,2.40
2023-03-26T23:52:01.083Z,2.50
2023-03-26T23:57:03.539Z,2.40
